Time;durP1;ratioP1;P1;durP2;ratioP2;P2;SDS_P1;SDS_P2;PMS_P1;PMS_P2;Temp;Humidity;BMP_temperature;BMP_pressure;BME280_temperature;BME280_humidity;BME280_pressure;Samples;Min_cycle;Max_cycle;Signal;HPM_P1;HPM_P2
2022/09/06 00:03:37;;;;;;;;;;;;;;;;;;10416650;28;20406;-60
2022/09/06 00:08:39;;;;;;;;;;;;;;;;;;10419273;28;19925;-60
2022/09/06 00:13:41;;;;;;;;;;;;;;;;;;10418456;28;20364;-60
2022/09/06 00:18:43;;;;;;;;;;;;;;;;;;10416887;28;19925;-60
2022/09/06 00:23:45;;;;;;;;;;;;;;;;;;10415065;28;19948;-60
2022/09/06 00:28:47;;;;;;;;;;;;;;;;;;10417724;28;19936;-60
2022/09/06 00:33:49;;;;;;;;;;;;;;;;;;10416083;28;19925;-60
2022/09/06 00:38:51;;;;;;;;;;;;;;;;;;10418021;28;19932;-60
2022/09/06 00:43:54;;;;;;;;;;;;;;;;;;10415596;28;19932;-60
2022/09/06 00:48:56;;;;;;;;;;;;;;;;;;10416921;28;20289;-60
2022/09/06 00:53:58;;;;;;;;;;;;;;;;;;10412428;28;20293;-60
2022/09/06 00:59:00;;;;;;;;;;;;;;;;;;10416791;28;19933;-60
2022/09/06 01:04:02;;;;;;;;;;;;;;;;;;10416338;28;19925;-60
2022/09/06 01:09:05;;;;;;;;;;;;;;;;;;10417012;28;19932;-60
2022/09/06 01:14:07;;;;;;;;;;;;;;;;;;10415094;28;20410;-60
2022/09/06 01:19:09;;;;;;;;;;;;;;;;;;10415381;28;19932;-59
2022/09/06 01:24:11;;;;;;;;;;;;;;;;;;10414416;28;20295;-60
2022/09/06 01:29:13;;;;;;;;;;;;;;;;;;10416471;28;19925;-60
2022/09/06 01:34:15;;;;;;;;;;;;;;;;;;10412856;28;20372;-60
2022/09/06 01:39:17;;;;;;;;;;;;;;;;;;10415279;28;19940;-60
2022/09/06 01:44:20;;;;;;;;;;;;;;;;;;10415406;28;20372;-60
2022/09/06 01:49:22;;;;;;;;;;;;;;;;;;10416368;28;19936;-60
2022/09/06 01:54:24;;;;;;;;;;;;;;;;;;10396979;28;20285;-60
2022/09/06 01:59:26;;;;;;;;;;;;;;;;;;10413106;28;19925;-60
2022/09/06 02:04:28;;;;;;;;;;;;;;;;;;10418039;28;19936;-60
2022/09/06 02:09:30;;;;;;;;;;;;;;;;;;10423301;28;19948;-60
2022/09/06 02:14:32;;;;;;;;;;;;;;;;;;10422709;28;19925;-60
2022/09/06 02:19:34;;;;;;;;;;;;;;;;;;10422764;28;19925;-60
2022/09/06 02:24:37;;;;;;;;;;;;;;;;;;10423271;28;19958;-59
2022/09/06 02:29:39;;;;;;;;;;;;;;;;;;10421643;28;19934;-59
2022/09/06 02:34:42;;;;;;;;;;;;;;;;;;10421299;28;19925;-58
2022/09/06 02:39:44;;;;;;;;;;;;;;;;;;10420689;28;19932;-58
2022/09/06 02:44:46;;;;;;;;;;;;;;;;;;10422259;28;19929;-60
2022/09/06 02:49:48;;;;;;;;;;;;;;;;;;10421772;28;19933;-59
2022/09/06 02:54:51;;;;;;;;;;;;;;;;;;10420645;28;20408;-59
2022/09/06 02:59:53;;;;;;;;;;;;;;;;;;10421308;28;19932;-59
2022/09/06 03:04:55;;;;;;;;;;;;;;;;;;10421765;28;19931;-59
2022/09/06 03:09:57;;;;;;;;;;;;;;;;;;10421665;28;19955;-59
2022/09/06 03:14:59;;;;;;;;;;;;;;;;;;10420230;28;19926;-59
2022/09/06 03:20:01;;;;;;;;;;;;;;;;;;10419261;28;19932;-59
2022/09/06 03:25:03;;;;;;;;;;;;;;;;;;10419538;28;20292;-59
2022/09/06 03:30:05;;;;;;;;;;;;;;;;;;10420216;28;19925;-59
2022/09/06 03:35:08;;;;;;;;;;;;;;;;;;10420708;28;19936;-59
2022/09/06 03:40:10;;;;;;;;;;;;;;;;;;10399479;28;19925;-59
2022/09/06 03:45:12;;;;;;;;;;;;;;;;;;10418447;28;20365;-60
2022/09/06 03:50:14;;;;;;;;;;;;;;;;;;10418568;28;20391;-59
2022/09/06 03:55:16;;;;;;;;;;;;;;;;;;10419910;28;19935;-59
2022/09/06 04:00:18;;;;;;;;;;;;;;;;;;10417520;28;19936;-60
2022/09/06 04:05:20;;;;;;;;;;;;;;;;;;10418228;28;19925;-59
2022/09/06 04:10:22;;;;;;;;;;;;;;;;;;10418635;28;19925;-60
2022/09/06 04:15:25;;;;;;;;;;;;;;;;;;10419034;28;19925;-59
2022/09/06 04:20:27;;;;;;;;;;;;;;;;;;10415961;28;19925;-60
2022/09/06 04:25:29;;;;;;;;;;;;;;;;;;10416860;28;19925;-60
2022/09/06 04:30:31;;;;;;;;;;;;;;;;;;10417900;28;19925;-60
2022/09/06 04:35:33;;;;;;;;;;;;;;;;;;10418219;28;19925;-60
2022/09/06 04:40:35;;;;;;;;;;;;;;;;;;10415618;28;20284;-60
2022/09/06 04:45:37;;;;;;;;;;;;;;;;;;10416686;28;19925;-60
2022/09/06 04:50:39;;;;;;;;;;;;;;;;;;10416924;28;19926;-60
2022/09/06 04:55:41;;;;;;;;;;;;;;;;;;10416814;28;19925;-60
2022/09/06 05:00:44;;;;;;;;;;;;;;;;;;10414603;28;20399;-60
2022/09/06 05:05:47;;;;;;;;;;;;;;;;;;10417039;28;19925;-60
2022/09/06 05:10:49;;;;;;;;;;;;;;;;;;10416538;28;19933;-60
2022/09/06 05:15:51;;;;;;;;;;;;;;;;;;10413932;28;19932;-60
2022/09/06 05:20:53;;;;;;;;;;;;;;;;;;10413356;28;19932;-60
2022/09/06 05:25:55;;;;;;;;;;;;;;;;;;10415802;28;20292;-60
2022/09/06 05:30:57;;;;;;;;;;;;;;;;;;10416961;28;19935;-60
2022/09/06 05:35:59;;;;;;;;;;;;;;;;;;10415478;28;19932;-60
2022/09/06 05:41:01;;;;;;;;;;;;;;;;;;10413329;28;19933;-60
2022/09/06 05:46:03;;;;;;;;;;;;;;;;;;10414306;28;19932;-60
2022/09/06 05:51:06;;;;;;;;;;;;;;;;;;10413719;28;19972;-60
2022/09/06 05:56:08;;;;;;;;;;;;;;;;;;10413099;28;20435;-60
2022/09/06 06:01:10;;;;;;;;;;;;;;;;;;10403992;22;20300;-60
2022/09/06 06:06:12;;;;;;;;;;;;;;;;;;10374836;28;19972;-61
2022/09/06 06:11:14;;;;;;;;;;;;;;;;;;10374882;28;19925;-61
2022/09/06 06:16:16;;;;;;;;;;;;;;;;;;10372940;28;19925;-61
2022/09/06 06:21:19;;;;;;;;;;;;;;;;;;10371748;28;19930;-61
2022/09/06 06:26:21;;;;;;;;;;;;;;;;;;10372785;28;19929;-61
2022/09/06 06:31:23;;;;;;;;;;;;;;;;;;10373796;28;20253;-61
2022/09/06 06:36:25;;;;;;;;;;;;;;;;;;10374369;28;19964;-61
2022/09/06 06:41:27;;;;;;;;;;;;;;;;;;10371302;28;19947;-61
2022/09/06 06:46:30;;;;;;;;;;;;;;;;;;10374099;28;19936;-61
2022/09/06 06:51:32;;;;;;;;;;;;;;;;;;10376012;28;19932;-61
2022/09/06 06:56:34;;;;;;;;;;;;;;;;;;10380667;28;19932;-61
2022/09/06 07:01:36;;;;;;;;;;;;;;;;;;10377767;28;20303;-61
2022/09/06 07:06:38;;;;;;;;;;;;;;;;;;10380839;28;20020;-60
2022/09/06 07:12:00;;;;;;;;;;;;;;;;;;10380046;28;20377;-61
2022/09/06 07:17:02;;;;;;;;;;;;;;;;;;10377404;28;19925;-61
2022/09/06 07:22:09;;;;;;;;;;;;;;;;;;10368682;28;19929;-61
2022/09/06 07:27:14;;;;;;;;;;;;;;;;;;10379928;28;19976;-61
2022/09/06 07:32:36;;;;;;;;;;;;;;;;;;10379107;28;19925;-61
2022/09/06 07:37:39;;;;;;;;;;;;;;;;;;10379499;28;19932;-61
2022/09/06 07:42:41;;;;;;;;;;;;;;;;;;10373453;28;19944;-62
2022/09/06 07:47:43;;;;;;;;;;;;;;;;;;10375358;28;19925;-61
2022/09/06 07:53:01;;;;;;;;;;;;;;;;;;10379208;28;19956;-61
2022/09/06 07:58:14;;;;;;;;;;;;;;;;;;10378986;28;19925;-61
2022/09/06 08:03:16;;;;;;;;;;;;;;;;;;10378504;28;20410;-62
2022/09/06 08:08:18;;;;;;;;;;;;;;;;;;10378524;28;19925;-62
2022/09/06 08:13:41;;;;;;;;;;;;;;;;;;10377614;28;19979;-62
2022/09/06 08:18:43;;;;;;;;;;;;;;;;;;10378117;28;19963;-61
2022/09/06 08:23:45;;;;;;;;;;;;;;;;;;10377863;28;19925;-62
2022/09/06 08:28:47;;;;;;;;;;;;;;;;;;10377794;28;19929;-62
2022/09/06 08:33:49;;;;;;;;;;;;;;;;;;10377599;28;19926;-62
2022/09/06 08:38:51;;;;;;;;;;;;;;;;;;10377349;28;19925;-62
2022/09/06 08:43:56;;;;;;;;;;;;;;;;;;10377154;28;19925;-61
2022/09/06 08:49:18;;;;;;;;;;;;;;;;;;10376311;28;19980;-62
2022/09/06 08:54:21;;;;;;;;;;;;;;;;;;10376186;28;20301;-62
2022/09/06 08:59:23;;;;;;;;;;;;;;;;;;10376658;28;19925;-62
2022/09/06 09:04:25;;;;;;;;;;;;;;;;;;10376404;28;19932;-62
2022/09/06 09:09:27;;;;;;;;;;;;;;;;;;10375663;28;20361;-62
2022/09/06 09:14:34;;;;;;;;;;;;;;;;;;10375717;28;19926;-62
2022/09/06 09:19:36;;;;;;;;;;;;;;;;;;10376010;28;19926;-62
2022/09/06 09:24:38;;;;;;;;;;;;;;;;;;10375798;28;19925;-62
2022/09/06 09:29:40;;;;;;;;;;;;;;;;;;10375702;28;19936;-62
2022/09/06 09:35:02;;;;;;;;;;;;;;;;;;10375507;28;19937;-62
2022/09/06 09:40:06;;;;;;;;;;;;;;;;;;10375603;28;19932;-62
2022/09/06 09:45:08;;;;;;;;;;;;;;;;;;10375289;28;19952;-62
2022/09/06 09:50:10;;;;;;;;;;;;;;;;;;10375298;28;19932;-62
2022/09/06 09:55:12;;;;;;;;;;;;;;;;;;10375330;28;19926;-62
2022/09/06 10:00:14;;;;;;;;;;;;;;;;;;10374798;28;19932;-63
2022/09/06 10:05:16;;;;;;;;;;;;;;;;;;10373144;28;19926;-63
2022/09/06 10:10:18;;;;;;;;;;;;;;;;;;10374913;28;19932;-62
2022/09/06 10:15:20;;;;;;;;;;;;;;;;;;10372991;28;20296;-63
2022/09/06 10:20:22;;;;;;;;;;;;;;;;;;10374076;28;19927;-63
2022/09/06 10:25:24;;;;;;;;;;;;;;;;;;10376085;28;20377;-63
2022/09/06 10:30:27;;;;;;;;;;;;;;;;;;10381736;28;19925;-63
2022/09/06 10:35:29;;;;;;;;;;;;;;;;;;10381577;28;19931;-63
2022/09/06 10:40:31;;;;;;;;;;;;;;;;;;10381949;28;19929;-63
2022/09/06 10:45:33;;;;;;;;;;;;;;;;;;10381083;28;19926;-63
2022/09/06 10:50:35;;;;;;;;;;;;;;;;;;10381574;28;19925;-64
2022/09/06 10:55:38;;;;;;;;;;;;;;;;;;10379737;28;20015;-64
2022/09/06 11:00:41;;;;;;;;;;;;;;;;;;10377919;28;19936;-64
2022/09/06 11:05:43;;;;;;;;;;;;;;;;;;10380265;28;19925;-64
2022/09/06 11:10:46;;;;;;;;;;;;;;;;;;10379877;28;19932;-64
2022/09/06 11:15:49;;;;;;;;;;;;;;;;;;10380599;28;19933;-64
2022/09/06 11:20:51;;;;;;;;;;;;;;;;;;10379246;28;19940;-63
2022/09/06 11:25:53;;;;;;;;;;;;;;;;;;10378161;28;19926;-64
2022/09/06 11:30:55;;;;;;;;;;;;;;;;;;10380000;28;19925;-63
2022/09/06 11:35:57;;;;;;;;;;;;;;;;;;10378886;28;20380;-64
2022/09/06 11:40:59;;;;;;;;;;;;;;;;;;10377384;28;20297;-64
2022/09/06 11:46:01;;;;;;;;;;;;;;;;;;10377937;28;19929;-64
2022/09/06 11:51:05;;;;;;;;;;;;;;;;;;10377477;28;20377;-64
2022/09/06 11:56:07;;;;;;;;;;;;;;;;;;10376850;28;19991;-65
2022/09/06 12:01:09;;;;;;;;;;;;;;;;;;10378063;28;20277;-65
2022/09/06 12:06:11;;;;;;;;;;;;;;;;;;10377199;28;19929;-65
2022/09/06 12:11:14;;;;;;;;;;;;;;;;;;10377823;28;20402;-65
2022/09/06 12:16:16;;;;;;;;;;;;;;;;;;10377163;28;20367;-64
2022/09/06 12:21:18;;;;;;;;;;;;;;;;;;10375473;28;20289;-64
2022/09/06 12:26:20;;;;;;;;;;;;;;;;;;10377573;28;19934;-64
2022/09/06 12:31:23;;;;;;;;;;;;;;;;;;10377042;28;20376;-65
2022/09/06 12:36:29;;;;;;;;;;;;;;;;;;10377539;28;19979;-65
2022/09/06 12:41:31;;;;;;;;;;;;;;;;;;10377423;28;20023;-65
2022/09/06 12:46:33;;;;;;;;;;;;;;;;;;10371928;28;19925;-65
2022/09/06 12:51:35;;;;;;;;;;;;;;;;;;10376245;28;20004;-65
2022/09/06 12:56:37;;;;;;;;;;;;;;;;;;10374682;28;19925;-64
2022/09/06 13:01:39;;;;;;;;;;;;;;;;;;10369567;28;20406;-64
2022/09/06 13:06:41;;;;;;;;;;;;;;;;;;10376073;28;19930;-65
2022/09/06 13:11:44;;;;;;;;;;;;;;;;;;10376221;28;19926;-64
2022/09/06 13:16:46;;;;;;;;;;;;;;;;;;10375744;28;19925;-64
2022/09/06 13:21:48;;;;;;;;;;;;;;;;;;10366799;28;20389;-64
2022/09/06 13:26:50;;;;;;;;;;;;;;;;;;10368125;28;19936;-64
2022/09/06 13:31:52;;;;;;;;;;;;;;;;;;10441606;22;20000;-67
2022/09/06 13:36:54;;;;;;;;;;;;;;;;;;10492349;28;20394;-67
2022/09/06 13:41:56;;;;;;;;;;;;;;;;;;10493236;28;19928;-66
2022/09/06 13:46:58;;;;;;;;;;;;;;;;;;10493101;28;19928;-66
2022/09/06 13:52:01;;;;;;;;;;;;;;;;;;10488467;28;20023;-65
2022/09/06 13:57:03;;;;;;;;;;;;;;;;;;10448979;28;19933;-66
2022/09/06 14:02:05;;;;;;;;;;;;;;;;;;10455970;28;19932;-66
2022/09/06 14:07:07;;;;;;;;;;;;;;;;;;10486747;28;19946;-66
2022/09/06 14:12:09;;;;;;;;;;;;;;;;;;10498440;28;19929;-66
2022/09/06 14:17:12;;;;;;;;;;;;;;;;;;10498047;28;19928;-66
2022/09/06 14:22:14;;;;;;;;;;;;;;;;;;10493910;28;19929;-66
2022/09/06 14:27:16;;;;;;;;;;;;;;;;;;10496983;28;20435;-67
2022/09/06 14:32:18;;;;;;;;;;;;;;;;;;10497754;28;19925;-67
2022/09/06 14:37:23;;;;;;;;;;;;;;;;;;10497868;28;19936;-66
2022/09/06 14:42:27;;;;;;;;;;;;;;;;;;10498260;28;19924;-66
2022/09/06 14:47:29;;;;;;;;;;;;;;;;;;10498252;28;19932;-66
2022/09/06 14:52:31;;;;;;;;;;;;;;;;;;10497615;28;19928;-66
2022/09/06 14:57:33;;;;;;;;;;;;;;;;;;10497971;28;19939;-66
2022/09/06 15:02:35;;;;;;;;;;;;;;;;;;10497258;28;19935;-66
2022/09/06 15:07:38;;;;;;;;;;;;;;;;;;10497309;28;19972;-66
2022/09/06 15:12:40;;;;;;;;;;;;;;;;;;10498145;28;19928;-66
2022/09/06 15:17:43;;;;;;;;;;;;;;;;;;10498967;28;19959;-66
2022/09/06 15:22:45;;;;;;;;;;;;;;;;;;10497028;28;20298;-66
2022/09/06 15:27:48;;;;;;;;;;;;;;;;;;10497125;28;20489;-66
2022/09/06 15:32:50;;;;;;;;;;;;;;;;;;10497028;28;19936;-66
2022/09/06 15:37:52;;;;;;;;;;;;;;;;;;10496863;28;20390;-66
2022/09/06 15:42:54;;;;;;;;;;;;;;;;;;10495543;28;19935;-65
2022/09/06 15:47:56;;;;;;;;;;;;;;;;;;10496129;28;19932;-65
2022/09/06 15:52:58;;;;;;;;;;;;;;;;;;10494115;28;19928;-65
2022/09/06 15:58:01;;;;;;;;;;;;;;;;;;10494752;28;20387;-65
2022/09/06 16:03:03;;;;;;;;;;;;;;;;;;10495432;28;19933;-65
2022/09/06 16:08:05;;;;;;;;;;;;;;;;;;10494551;28;19963;-65
2022/09/06 16:13:07;;;;;;;;;;;;;;;;;;10495846;28;19931;-65
2022/09/06 16:18:09;;;;;;;;;;;;;;;;;;10501836;28;19931;-65
2022/09/06 16:23:11;;;;;;;;;;;;;;;;;;10499933;28;19932;-65
2022/09/06 16:28:14;;;;;;;;;;;;;;;;;;10500423;28;19928;-65
2022/09/06 16:33:16;;;;;;;;;;;;;;;;;;10500458;28;19932;-65
2022/09/06 16:38:18;;;;;;;;;;;;;;;;;;10500301;28;20315;-65
2022/09/06 16:43:20;;;;;;;;;;;;;;;;;;10500722;28;19925;-65
2022/09/06 16:48:22;;;;;;;;;;;;;;;;;;10500482;28;19924;-65
2022/09/06 16:53:24;;;;;;;;;;;;;;;;;;10500360;28;20014;-65
2022/09/06 16:58:28;;;;;;;;;;;;;;;;;;10500004;28;19932;-65
2022/09/06 17:03:30;;;;;;;;;;;;;;;;;;10500400;28;19925;-65
2022/09/06 17:08:33;;;;;;;;;;;;;;;;;;10499602;28;20368;-65
2022/09/06 17:13:35;;;;;;;;;;;;;;;;;;10499003;28;20385;-65
2022/09/06 17:18:37;;;;;;;;;;;;;;;;;;10499543;28;19928;-65
2022/09/06 17:23:40;;;;;;;;;;;;;;;;;;10499420;28;19924;-65
2022/09/06 17:28:42;;;;;;;;;;;;;;;;;;10498601;28;20034;-65
2022/09/06 17:33:44;;;;;;;;;;;;;;;;;;10498175;28;19928;-65
2022/09/06 17:38:46;;;;;;;;;;;;;;;;;;10496984;28;19925;-65
2022/09/06 17:43:53;;;;;;;;;;;;;;;;;;10496639;28;20169;-65
2022/09/06 17:48:57;;;;;;;;;;;;;;;;;;10497002;28;21281;-65
2022/09/06 17:53:59;;;;;;;;;;;;;;;;;;10498734;28;19932;-65
2022/09/06 17:59:02;;;;;;;;;;;;;;;;;;10496436;28;20287;-65
2022/09/06 18:04:04;;;;;;;;;;;;;;;;;;10496185;28;19935;-65
2022/09/06 18:09:08;;;;;;;;;;;;;;;;;;10495180;28;19928;-65
2022/09/06 18:14:10;;;;;;;;;;;;;;;;;;10491734;28;19924;-64
2022/09/06 18:19:12;;;;;;;;;;;;;;;;;;10496049;28;19925;-65
2022/09/06 18:24:14;;;;;;;;;;;;;;;;;;10493806;28;20407;-65
2022/09/06 18:29:17;;;;;;;;;;;;;;;;;;10489245;28;20394;-65
2022/09/06 18:34:19;;;;;;;;;;;;;;;;;;10492605;28;19931;-64
2022/09/06 18:39:21;;;;;;;;;;;;;;;;;;10469267;28;20299;-64
2022/09/06 18:44:23;;;;;;;;;;;;;;;;;;10486178;28;19940;-64
2022/09/06 18:49:26;;;;;;;;;;;;;;;;;;10494361;28;19928;-64
2022/09/06 18:54:28;;;;;;;;;;;;;;;;;;10492466;28;19930;-64
2022/09/06 18:59:30;;;;;;;;;;;;;;;;;;10497349;28;20279;-64
2022/09/06 19:04:33;;;;;;;;;;;;;;;;;;10462261;28;19928;-64
2022/09/06 19:09:35;;;;;;;;;;;;;;;;;;10497178;28;19924;-64
2022/09/06 19:14:37;;;;;;;;;;;;;;;;;;10492450;28;19931;-64
2022/09/06 19:19:39;;;;;;;;;;;;;;;;;;10497011;28;19931;-64
2022/09/06 19:24:42;;;;;;;;;;;;;;;;;;10502816;28;19924;-64
2022/09/06 19:29:45;;;;;;;;;;;;;;;;;;10485490;22;19929;-62
2022/09/06 19:34:47;;;;;;;;;;;;;;;;;;10420284;28;19925;-62
2022/09/06 19:39:50;;;;;;;;;;;;;;;;;;10418804;28;19948;-62
2022/09/06 19:44:52;;;;;;;;;;;;;;;;;;10419819;28;19972;-62
2022/09/06 19:49:54;;;;;;;;;;;;;;;;;;10418522;28;19932;-62
2022/09/06 19:54:56;;;;;;;;;;;;;;;;;;10416522;28;19925;-62
2022/09/06 19:59:58;;;;;;;;;;;;;;;;;;10418609;28;20368;-62
2022/09/06 20:05:00;;;;;;;;;;;;;;;;;;10418986;28;19932;-62
2022/09/06 20:10:02;;;;;;;;;;;;;;;;;;10417533;28;19929;-62
2022/09/06 20:15:05;;;;;;;;;;;;;;;;;;10418567;28;19934;-62
2022/09/06 20:20:07;;;;;;;;;;;;;;;;;;10417866;28;19926;-62
2022/09/06 20:25:10;;;;;;;;;;;;;;;;;;10416642;28;19929;-62
2022/09/06 20:30:12;;;;;;;;;;;;;;;;;;10416963;28;19925;-62
2022/09/06 20:35:15;;;;;;;;;;;;;;;;;;10416516;28;19929;-62
2022/09/06 20:40:17;;;;;;;;;;;;;;;;;;10416957;28;19940;-62
2022/09/06 20:45:21;;;;;;;;;;;;;;;;;;10416131;28;19932;-62
2022/09/06 20:50:23;;;;;;;;;;;;;;;;;;10416377;28;19937;-62
2022/09/06 20:55:25;;;;;;;;;;;;;;;;;;10415840;28;20399;-62
2022/09/06 21:00:27;;;;;;;;;;;;;;;;;;10416904;28;19940;-62
2022/09/06 21:05:30;;;;;;;;;;;;;;;;;;10416573;28;19925;-62
2022/09/06 21:10:33;;;;;;;;;;;;;;;;;;10413545;28;19925;-62
2022/09/06 21:15:35;;;;;;;;;;;;;;;;;;10415753;28;20300;-61
2022/09/06 21:20:37;;;;;;;;;;;;;;;;;;10416287;28;19933;-62
2022/09/06 21:25:39;;;;;;;;;;;;;;;;;;10415440;28;20387;-62
2022/09/06 21:30:41;;;;;;;;;;;;;;;;;;10415574;28;19925;-62
2022/09/06 21:35:43;;;;;;;;;;;;;;;;;;10416578;28;19932;-61
2022/09/06 21:40:45;;;;;;;;;;;;;;;;;;10415773;28;19951;-62
2022/09/06 21:45:48;;;;;;;;;;;;;;;;;;10415610;28;19925;-61
2022/09/06 21:50:50;;;;;;;;;;;;;;;;;;10414014;28;20384;-61
2022/09/06 21:55:52;;;;;;;;;;;;;;;;;;10416027;28;19925;-61
2022/09/06 22:00:55;;;;;;;;;;;;;;;;;;10415989;28;19933;-62
2022/09/06 22:05:57;;;;;;;;;;;;;;;;;;10415234;28;19925;-61
2022/09/06 22:10:59;;;;;;;;;;;;;;;;;;10413728;28;20300;-61
2022/09/06 22:16:01;;;;;;;;;;;;;;;;;;10415647;28;19925;-61
2022/09/06 22:21:08;;;;;;;;;;;;;;;;;;10417836;28;19947;-61
2022/09/06 22:26:10;;;;;;;;;;;;;;;;;;10422904;28;19932;-61
2022/09/06 22:31:12;;;;;;;;;;;;;;;;;;10421605;28;19933;-61
2022/09/06 22:36:14;;;;;;;;;;;;;;;;;;10422930;28;19925;-60
2022/09/06 22:41:16;;;;;;;;;;;;;;;;;;10422959;28;19932;-61
2022/09/06 22:46:19;;;;;;;;;;;;;;;;;;10421441;28;19925;-61
2022/09/06 22:51:21;;;;;;;;;;;;;;;;;;10421247;28;19929;-61
2022/09/06 22:56:23;;;;;;;;;;;;;;;;;;10421843;28;20288;-61
2022/09/06 23:01:25;;;;;;;;;;;;;;;;;;10421664;28;20331;-60
2022/09/06 23:06:27;;;;;;;;;;;;;;;;;;10420845;28;20437;-60
2022/09/06 23:11:30;;;;;;;;;;;;;;;;;;10421079;28;19932;-60
2022/09/06 23:16:32;;;;;;;;;;;;;;;;;;10421143;28;20268;-60
2022/09/06 23:21:35;;;;;;;;;;;;;;;;;;10420247;28;20388;-59
2022/09/06 23:26:37;;;;;;;;;;;;;;;;;;10421275;28;19932;-61
2022/09/06 23:31:39;;;;;;;;;;;;;;;;;;10418684;28;19925;-61
2022/09/06 23:36:41;;;;;;;;;;;;;;;;;;10420952;28;19975;-61
2022/09/06 23:41:43;;;;;;;;;;;;;;;;;;10420093;28;19932;-60
2022/09/06 23:46:45;;;;;;;;;;;;;;;;;;10419208;28;19929;-60
2022/09/06 23:51:47;;;;;;;;;;;;;;;;;;10419597;28;19955;-60
2022/09/06 23:56:50;;;;;;;;;;;;;;;;;;10419546;28;20315;-60
